Time;durP1;ratioP1;P1;durP2;ratioP2;P2;SDS_P1;SDS_P2;PMS_P1;PMS_P2;Temp;Humidity;BMP_temperature;BMP_pressure;BME280_temperature;BME280_humidity;BME280_pressure;Samples;Min_cycle;Max_cycle;Signal;HPM_P1;HPM_P2
2020/12/20 05:45:44;;;;;;;27.52;19.80;;;;;;;;;;6251677;22;883518;-83
2020/12/20 05:48:14;;;;;;;29.40;20.90;;;;;;;;;;6289109;22;20019;-83
2020/12/20 05:50:48;;;;;;;28.10;21.35;;;;;;;;;;6316083;22;20026;-82
2020/12/20 05:53:14;;;;;;;32.10;21.63;;;;;;;;;;6288321;22;20025;-79
2020/12/20 05:55:41;;;;;;;30.30;21.10;;;;;;;;;;6310148;22;20019;-82
2020/12/20 05:58:08;;;;;;;33.55;21.02;;;;;;;;;;6287993;22;19996;-80
2020/12/20 06:00:34;;;;;;;30.10;21.20;;;;;;;;;;6348837;22;20104;-82
2020/12/20 06:03:00;;;;;;;30.20;20.77;;;;;;;;;;6349636;22;20052;-83
2020/12/20 06:05:31;;;;;;;31.83;20.63;;;;;;;;;;6347534;22;19999;-82
2020/12/20 06:08:00;;;;;;;41.53;25.90;;;;;;;;;;6342186;22;20003;-83
2020/12/20 06:10:29;;;;;;;34.20;23.42;;;;;;;;;;6341076;22;20014;-82
2020/12/20 06:12:57;;;;;;;33.95;22.17;;;;;;;;;;6340416;22;20056;-82
2020/12/20 06:15:30;;;;;;;32.25;21.63;;;;;;;;;;6339780;22;20003;-82
2020/12/20 06:17:57;;;;;;;29.83;19.75;;;;;;;;;;6338934;22;19999;-83
2020/12/20 06:20:28;;;;;;;28.95;20.85;;;;;;;;;;6337938;22;20003;-83
2020/12/20 06:25:14;;;;;;;26.05;19.08;;;;;;;;;;5090576;28;21082;-82
2020/12/20 06:27:47;;;;;;;31.23;20.55;;;;;;;;;;5073523;28;20032;-81
2020/12/20 06:30:13;;;;;;;31.70;18.23;;;;;;;;;;5078654;28;20079;-82
2020/12/20 06:32:40;;;;;;;30.60;20.27;;;;;;;;;;5083094;28;20020;-82
2020/12/20 06:35:21;;;;;;;37.97;22.63;;;;;;;;;;5082844;28;20020;-82
2020/12/20 06:37:47;;;;;;;34.42;22.60;;;;;;;;;;5082878;28;20435;-82
2020/12/20 06:40:15;;;;;;;30.70;22.27;;;;;;;;;;5075482;28;20027;-82
2020/12/20 06:42:42;;;;;;;32.28;21.98;;;;;;;;;;5062348;28;20039;-82
2020/12/20 06:45:12;;;;;;;32.72;20.23;;;;;;;;;;5062461;28;20028;-82
2020/12/20 06:48:09;;;;;;;27.40;21.15;;;;;;;;;;5078212;28;20021;-81
2020/12/20 06:50:48;;;;;;;25.75;19.45;;;;;;;;;;5057194;28;20032;-81
2020/12/20 06:55:32;;;;;;;25.30;18.95;;;;;;;;;;5087190;27;20755;-83
2020/12/20 06:58:04;;;;;;;28.90;20.10;;;;;;;;;;5053564;28;20036;-83
2020/12/20 07:00:43;;;;;;;29.58;19.75;;;;;;;;;;5074913;28;20025;-82
2020/12/20 07:03:31;;;;;;;25.70;19.20;;;;;;;;;;5064567;28;20017;-79
2020/12/20 07:08:25;;;;;;;24.13;17.75;;;;;;;;;;5111792;27;20402;-80
2020/12/20 07:10:52;;;;;;;23.15;16.65;;;;;;;;;;5082584;28;20028;-83
2020/12/20 07:13:31;;;;;;;23.98;18.15;;;;;;;;;;5085125;28;20033;-79
2020/12/20 07:16:04;;;;;;;23.17;16.65;;;;;;;;;;5085628;28;20032;-82
2020/12/20 07:18:39;;;;;;;26.65;17.48;;;;;;;;;;5081325;28;20017;-82
2020/12/20 07:21:06;;;;;;;23.45;17.02;;;;;;;;;;5080674;28;20036;-81
2020/12/20 07:23:31;;;;;;;27.25;17.25;;;;;;;;;;5091187;28;20024;-81
2020/12/20 07:25:58;;;;;;;24.77;17.90;;;;;;;;;;5091890;28;20106;-79
2020/12/20 07:28:23;;;;;;;27.42;17.15;;;;;;;;;;5097981;28;20024;-82
2020/12/20 07:30:49;;;;;;;23.33;17.20;;;;;;;;;;5074716;28;20021;-82
2020/12/20 07:33:19;;;;;;;24.95;18.00;;;;;;;;;;5083583;28;20032;-81
2020/12/20 07:35:48;;;;;;;21.77;15.88;;;;;;;;;;5079818;28;20118;-81
2020/12/20 07:38:14;;;;;;;23.85;17.25;;;;;;;;;;5077951;28;20055;-83
2020/12/20 07:40:41;;;;;;;25.58;17.17;;;;;;;;;;5073062;28;20503;-81
2020/12/20 07:45:25;;;;;;;28.00;16.63;;;;;;;;;;5114292;27;20405;-79
2020/12/20 07:47:51;;;;;;;20.00;15.70;;;;;;;;;;5109691;28;20036;-80
2020/12/20 07:50:24;;;;;;;22.92;16.90;;;;;;;;;;5108341;28;20024;-81
2020/12/20 07:52:50;;;;;;;22.40;16.85;;;;;;;;;;5104718;28;20025;-81
2020/12/20 07:55:16;;;;;;;24.23;17.92;;;;;;;;;;5105491;28;20031;-81
2020/12/20 07:57:46;;;;;;;26.63;17.90;;;;;;;;;;5114210;28;20019;-82
2020/12/20 08:00:12;;;;;;;24.27;16.88;;;;;;;;;;5109321;28;20031;-81
2020/12/20 08:02:39;;;;;;;24.92;17.63;;;;;;;;;;5115322;28;20060;-81
2020/12/20 08:05:09;;;;;;;20.85;15.48;;;;;;;;;;5114072;28;20021;-81
2020/12/20 08:07:35;;;;;;;20.17;15.18;;;;;;;;;;5101559;28;20028;-81
2020/12/20 08:10:01;;;;;;;23.92;17.40;;;;;;;;;;5098367;28;20099;-81
2020/12/20 08:12:27;;;;;;;21.90;16.27;;;;;;;;;;5102432;28;20020;-82
2020/12/20 08:15:11;;;;;;;23.20;17.02;;;;;;;;;;5102147;28;20044;-81
2020/12/20 08:17:37;;;;;;;26.20;19.98;;;;;;;;;;5104163;28;20016;-81
2020/12/20 08:20:07;;;;;;;35.97;23.52;;;;;;;;;;5102186;28;20052;-81
2020/12/20 08:22:34;;;;;;;28.95;20.45;;;;;;;;;;5102483;28;20110;-82
2020/12/20 08:25:07;;;;;;;25.30;18.25;;;;;;;;;;5102794;28;20023;-81
2020/12/20 08:27:33;;;;;;;26.20;18.98;;;;;;;;;;5106287;28;20494;-82
2020/12/20 08:30:01;;;;;;;26.88;17.98;;;;;;;;;;5100475;28;20044;-81
2020/12/20 08:32:33;;;;;;;24.90;17.23;;;;;;;;;;5094281;28;20362;-81
2020/12/20 08:35:11;;;;;;;23.75;16.90;;;;;;;;;;5102433;28;20572;-81
2020/12/20 08:37:37;;;;;;;25.05;17.98;;;;;;;;;;5103984;28;20032;-81
2020/12/20 08:40:14;;;;;;;23.67;16.65;;;;;;;;;;5113078;28;20042;-81
2020/12/20 08:42:40;;;;;;;25.33;17.50;;;;;;;;;;5116773;28;20072;-82
2020/12/20 08:45:19;;;;;;;27.50;21.52;;;;;;;;;;5107684;28;20031;-81
2020/12/20 08:47:46;;;;;;;28.23;19.92;;;;;;;;;;5102282;28;20102;-81
2020/12/20 08:50:12;;;;;;;27.40;20.33;;;;;;;;;;5096513;28;20027;-81
2020/12/20 08:52:39;;;;;;;28.65;20.92;;;;;;;;;;5100491;28;20034;-80
2020/12/20 08:55:06;;;;;;;26.67;19.90;;;;;;;;;;5094779;28;20024;-80
2020/12/20 08:57:33;;;;;;;32.10;23.52;;;;;;;;;;5083733;28;20026;-80
2020/12/20 09:00:15;;;;;;;36.03;25.13;;;;;;;;;;5082522;28;20101;-81
2020/12/20 09:02:41;;;;;;;34.50;25.55;;;;;;;;;;5079000;28;20028;-83
2020/12/20 09:05:11;;;;;;;38.47;28.55;;;;;;;;;;5084078;28;20066;-82
2020/12/20 09:07:40;;;;;;;42.08;30.17;;;;;;;;;;5088561;28;20032;-81
2020/12/20 09:10:08;;;;;;;43.25;30.95;;;;;;;;;;5083971;28;20112;-82
2020/12/20 09:12:34;;;;;;;39.38;28.95;;;;;;;;;;5087113;28;21295;-81
2020/12/20 09:15:01;;;;;;;44.80;30.83;;;;;;;;;;5086280;28;20062;-82
2020/12/20 09:17:34;;;;;;;41.17;28.98;;;;;;;;;;5096205;28;20622;-82
2020/12/20 09:20:01;;;;;;;40.88;29.48;;;;;;;;;;5103834;28;20368;-82
2020/12/20 09:22:46;;;;;;;35.88;27.60;;;;;;;;;;5101212;28;20016;-82
2020/12/20 09:25:13;;;;;;;33.28;26.10;;;;;;;;;;5103996;28;20081;-82
2020/12/20 09:27:39;;;;;;;39.58;29.98;;;;;;;;;;5100168;28;20028;-82
2020/12/20 09:30:06;;;;;;;37.60;27.42;;;;;;;;;;5103205;28;20024;-82
2020/12/20 09:32:35;;;;;;;33.63;24.63;;;;;;;;;;5101115;28;20457;-83
2020/12/20 09:35:08;;;;;;;32.63;26.35;;;;;;;;;;5098128;28;20086;-82
2020/12/20 09:37:40;;;;;;;33.88;26.20;;;;;;;;;;5099458;28;20484;-82
2020/12/20 09:40:07;;;;;;;31.05;22.83;;;;;;;;;;5096181;28;20023;-82
2020/12/20 09:42:37;;;;;;;34.08;24.35;;;;;;;;;;5092745;28;20024;-82
2020/12/20 09:45:03;;;;;;;28.38;22.58;;;;;;;;;;5089589;28;20035;-82
2020/12/20 09:47:29;;;;;;;30.10;23.80;;;;;;;;;;5090003;28;20025;-82
2020/12/20 09:49:55;;;;;;;31.95;22.48;;;;;;;;;;5095470;28;20366;-81
2020/12/20 09:52:21;;;;;;;31.23;22.92;;;;;;;;;;5084958;28;20115;-81
2020/12/20 09:54:46;;;;;;;28.63;21.60;;;;;;;;;;5084264;28;20103;-82
2020/12/20 09:57:12;;;;;;;37.90;27.50;;;;;;;;;;5093954;28;20059;-81
2020/12/20 09:59:38;;;;;;;37.38;27.95;;;;;;;;;;5084333;28;20051;-81
2020/12/20 10:02:05;;;;;;;41.30;29.92;;;;;;;;;;5088697;28;20584;-82
2020/12/20 10:04:34;;;;;;;36.53;27.30;;;;;;;;;;5091266;28;20031;-82
2020/12/20 10:07:00;;;;;;;32.63;24.38;;;;;;;;;;5082620;28;20145;-82
2020/12/20 10:09:26;;;;;;;34.92;27.27;;;;;;;;;;5095210;28;20488;-83
2020/12/20 10:11:52;;;;;;;35.17;26.63;;;;;;;;;;5092552;28;20028;-82
2020/12/20 10:14:18;;;;;;;44.22;30.10;;;;;;;;;;5087371;28;20366;-82
2020/12/20 10:19:05;;;;;;;37.78;28.33;;;;;;;;;;5104614;27;20356;-80
2020/12/20 10:21:31;;;;;;;37.00;27.58;;;;;;;;;;5096764;28;20116;-81
2020/12/20 10:23:57;;;;;;;38.83;28.98;;;;;;;;;;5093015;28;20452;-81
2020/12/20 10:26:23;;;;;;;34.33;26.55;;;;;;;;;;5096926;28;20028;-81
2020/12/20 10:28:49;;;;;;;32.53;24.60;;;;;;;;;;5099941;28;20020;-82
2020/12/20 10:31:21;;;;;;;31.75;24.05;;;;;;;;;;5098130;28;20027;-81
2020/12/20 10:33:47;;;;;;;33.25;24.23;;;;;;;;;;5093837;28;20032;-81
2020/12/20 10:38:32;;;;;;;34.38;25.77;;;;;;;;;;5111893;27;20380;-80
2020/12/20 10:40:58;;;;;;;35.17;26.35;;;;;;;;;;5093680;28;20020;-80
2020/12/20 10:43:24;;;;;;;34.20;24.98;;;;;;;;;;5100627;28;20023;-81
2020/12/20 10:45:49;;;;;;;31.73;23.98;;;;;;;;;;5097800;28;20051;-82
2020/12/20 10:48:15;;;;;;;41.63;29.35;;;;;;;;;;5102087;28;20103;-82
2020/12/20 10:50:41;;;;;;;36.33;28.48;;;;;;;;;;5099998;28;20046;-82
2020/12/20 10:53:07;;;;;;;46.67;33.15;;;;;;;;;;5116761;28;20036;-82
2020/12/20 10:55:33;;;;;;;44.17;31.50;;;;;;;;;;5101892;28;20028;-82
2020/12/20 10:57:59;;;;;;;43.30;31.83;;;;;;;;;;5104719;28;20024;-82
2020/12/20 11:00:25;;;;;;;47.22;34.20;;;;;;;;;;5099413;28;20024;-81
2020/12/20 11:02:51;;;;;;;47.55;33.17;;;;;;;;;;5095522;28;20019;-83
2020/12/20 11:05:17;;;;;;;50.95;36.22;;;;;;;;;;5100537;28;20050;-83
2020/12/20 11:07:43;;;;;;;52.30;38.08;;;;;;;;;;5106014;28;20020;-83
2020/12/20 11:10:09;;;;;;;55.38;40.88;;;;;;;;;;5103942;28;20086;-83
2020/12/20 11:12:35;;;;;;;56.88;42.58;;;;;;;;;;5095763;28;20028;-82
2020/12/20 11:15:01;;;;;;;49.20;37.20;;;;;;;;;;5101238;28;20032;-83
2020/12/20 11:17:27;;;;;;;41.78;33.60;;;;;;;;;;5091499;28;20053;-82
2020/12/20 11:19:54;;;;;;;40.08;30.20;;;;;;;;;;5094596;28;20024;-82
2020/12/20 11:22:21;;;;;;;38.42;28.08;;;;;;;;;;5098141;28;20388;-83
2020/12/20 11:24:47;;;;;;;34.25;25.90;;;;;;;;;;5091703;28;20089;-82
2020/12/20 11:27:13;;;;;;;30.27;22.63;;;;;;;;;;5090482;28;20032;-83
2020/12/20 11:29:39;;;;;;;36.20;23.75;;;;;;;;;;5095413;28;20040;-83
2020/12/20 11:34:23;;;;;;;29.33;21.45;;;;;;;;;;5068649;28;20391;-83
2020/12/20 11:36:49;;;;;;;26.35;20.75;;;;;;;;;;5069814;28;20029;-83
2020/12/20 11:39:16;;;;;;;26.67;20.08;;;;;;;;;;5068204;28;20104;-83
2020/12/20 11:41:42;;;;;;;36.60;22.27;;;;;;;;;;5061782;28;20025;-83
2020/12/20 11:44:09;;;;;;;52.55;30.45;;;;;;;;;;5069788;28;20040;-82
2020/12/20 11:46:35;;;;;;;33.97;24.23;;;;;;;;;;5072303;28;20024;-82
2020/12/20 11:49:01;;;;;;;27.10;19.58;;;;;;;;;;5066533;28;20154;-83
2020/12/20 11:51:27;;;;;;;25.35;16.85;;;;;;;;;;5069579;28;20029;-83
2020/12/20 11:56:11;;;;;;;23.77;16.98;;;;;;;;;;5107744;27;20402;-82
2020/12/20 11:58:38;;;;;;;25.05;16.67;;;;;;;;;;5100130;28;20028;-80
2020/12/20 12:01:04;;;;;;;23.40;15.27;;;;;;;;;;5089329;28;20055;-80
2020/12/20 12:03:30;;;;;;;22.13;15.98;;;;;;;;;;5089461;28;20094;-80
2020/12/20 12:05:57;;;;;;;24.30;17.75;;;;;;;;;;5089169;28;20016;-80
2020/12/20 12:08:23;;;;;;;25.58;17.20;;;;;;;;;;5089280;28;20024;-80
2020/12/20 12:10:49;;;;;;;19.70;14.10;;;;;;;;;;5089310;28;20020;-81
2020/12/20 12:13:15;;;;;;;31.52;22.23;;;;;;;;;;5089201;28;20024;-80
2020/12/20 12:15:42;;;;;;;38.88;25.60;;;;;;;;;;5088709;28;20028;-81
2020/12/20 12:18:08;;;;;;;27.83;18.77;;;;;;;;;;5092680;28;20109;-81
2020/12/20 12:20:34;;;;;;;25.38;17.48;;;;;;;;;;5091628;28;20047;-80
2020/12/20 12:23:00;;;;;;;20.55;14.23;;;;;;;;;;5080904;28;20048;-80
2020/12/20 12:25:27;;;;;;;18.55;11.85;;;;;;;;;;5086765;28;20561;-80
2020/12/20 12:27:52;;;;;;;19.27;14.43;;;;;;;;;;5088272;28;20036;-81
2020/12/20 12:30:19;;;;;;;23.25;16.17;;;;;;;;;;5087414;28;20040;-80
2020/12/20 12:32:45;;;;;;;25.25;18.20;;;;;;;;;;5090530;28;20033;-81
2020/12/20 12:35:11;;;;;;;27.55;19.88;;;;;;;;;;5081437;28;20035;-84
2020/12/20 12:37:37;;;;;;;25.77;18.30;;;;;;;;;;5092173;28;20388;-80
2020/12/20 12:40:04;;;;;;;26.88;15.55;;;;;;;;;;5089455;28;20463;-81
2020/12/20 12:42:30;;;;;;;20.77;14.82;;;;;;;;;;5087327;28;20020;-80
2020/12/20 12:44:56;;;;;;;21.60;14.95;;;;;;;;;;5087014;28;20131;-81
2020/12/20 12:47:22;;;;;;;21.60;15.32;;;;;;;;;;5088272;28;20036;-81
2020/12/20 12:49:48;;;;;;;21.45;13.70;;;;;;;;;;5087594;28;20107;-81
2020/12/20 12:52:14;;;;;;;55.85;31.90;;;;;;;;;;5085433;28;20032;-81
2020/12/20 12:54:40;;;;;;;33.35;22.40;;;;;;;;;;5087517;28;20047;-81
2020/12/20 12:57:06;;;;;;;34.65;22.52;;;;;;;;;;5086793;28;20026;-81
2020/12/20 12:59:32;;;;;;;28.75;20.83;;;;;;;;;;5092346;28;20016;-80
2020/12/20 13:01:58;;;;;;;28.75;20.05;;;;;;;;;;5097459;28;20023;-82
2020/12/20 13:04:24;;;;;;;27.15;18.92;;;;;;;;;;5099172;28;20036;-82
2020/12/20 13:06:54;;;;;;;32.83;21.10;;;;;;;;;;5089479;28;20020;-81
2020/12/20 13:09:20;;;;;;;29.88;21.65;;;;;;;;;;5082433;28;20029;-81
2020/12/20 13:11:46;;;;;;;26.88;18.50;;;;;;;;;;5079811;28;20081;-80
2020/12/20 13:14:12;;;;;;;27.88;19.20;;;;;;;;;;5080137;28;20025;-81
2020/12/20 13:16:38;;;;;;;28.85;18.88;;;;;;;;;;5080324;28;20028;-80
2020/12/20 13:19:04;;;;;;;24.95;19.38;;;;;;;;;;5077848;28;20099;-79
2020/12/20 13:21:30;;;;;;;25.90;19.27;;;;;;;;;;5073329;28;20045;-83
2020/12/20 13:23:57;;;;;;;22.63;16.00;;;;;;;;;;5082884;28;20080;-81
2020/12/20 13:26:23;;;;;;;21.77;15.13;;;;;;;;;;5093276;28;20025;-84
2020/12/20 13:28:49;;;;;;;19.60;15.02;;;;;;;;;;5082640;28;20048;-83
2020/12/20 13:31:22;;;;;;;16.48;12.18;;;;;;;;;;5072138;28;20033;-81
2020/12/20 13:33:48;;;;;;;16.20;10.90;;;;;;;;;;5072478;28;20476;-81
2020/12/20 13:36:14;;;;;;;13.23;10.15;;;;;;;;;;5073075;28;20036;-80
2020/12/20 13:38:40;;;;;;;21.70;14.25;;;;;;;;;;5076369;28;20024;-83
2020/12/20 13:41:07;;;;;;;25.17;17.08;;;;;;;;;;5078661;28;20082;-81
2020/12/20 13:43:32;;;;;;;21.25;15.82;;;;;;;;;;5076124;28;20077;-81
2020/12/20 13:48:18;;;;;;;17.02;11.27;;;;;;;;;;5092276;27;20391;-82
2020/12/20 13:50:43;;;;;;;16.15;10.60;;;;;;;;;;5100488;28;20027;-82
2020/12/20 13:53:10;;;;;;;14.73;9.27;;;;;;;;;;5094884;28;20039;-82
2020/12/20 13:55:35;;;;;;;13.23;8.43;;;;;;;;;;5096305;28;20103;-82
2020/12/20 13:58:01;;;;;;;11.15;8.15;;;;;;;;;;5095535;28;20056;-82
2020/12/20 14:00:27;;;;;;;12.23;8.05;;;;;;;;;;5090316;28;20028;-83
2020/12/20 14:02:53;;;;;;;11.98;7.85;;;;;;;;;;5089262;28;20060;-80
2020/12/20 14:05:19;;;;;;;13.00;8.77;;;;;;;;;;5098299;28;20024;-82
2020/12/20 14:07:45;;;;;;;15.35;11.05;;;;;;;;;;5087667;28;20040;-82
2020/12/20 14:10:12;;;;;;;11.43;8.18;;;;;;;;;;5087407;28;20033;-83
2020/12/20 14:12:38;;;;;;;10.63;7.43;;;;;;;;;;5087344;28;20025;-82
2020/12/20 14:15:05;;;;;;;12.35;7.13;;;;;;;;;;5082768;28;20019;-82
2020/12/20 14:17:32;;;;;;;9.40;6.13;;;;;;;;;;5085370;28;20507;-83
2020/12/20 14:19:58;;;;;;;11.73;6.63;;;;;;;;;;5084954;28;20111;-83
2020/12/20 14:22:24;;;;;;;9.18;6.03;;;;;;;;;;5087041;28;20084;-82
2020/12/20 14:24:50;;;;;;;10.32;5.30;;;;;;;;;;5093034;28;20075;-82
2020/12/20 14:27:16;;;;;;;6.32;4.63;;;;;;;;;;5085037;28;20024;-82
2020/12/20 14:29:42;;;;;;;10.10;5.07;;;;;;;;;;5083258;28;20031;-82
2020/12/20 14:32:10;;;;;;;11.77;5.50;;;;;;;;;;5094446;28;20103;-82
2020/12/20 14:34:36;;;;;;;10.27;5.90;;;;;;;;;;5086042;28;20038;-82
2020/12/20 14:37:03;;;;;;;7.68;4.15;;;;;;;;;;5090400;28;20472;-82
2020/12/20 14:39:28;;;;;;;6.75;4.22;;;;;;;;;;5088959;28;20024;-82
2020/12/20 14:44:13;;;;;;;7.15;3.83;;;;;;;;;;5108835;27;20416;-82
2020/12/20 14:48:57;;;;;;;7.35;4.10;;;;;;;;;;5088944;28;20360;-81
2020/12/20 14:51:23;;;;;;;7.40;3.95;;;;;;;;;;5056204;28;20052;-82
2020/12/20 14:53:49;;;;;;;8.57;3.78;;;;;;;;;;5072771;28;20037;-82
2020/12/20 14:56:16;;;;;;;7.50;4.00;;;;;;;;;;5068905;28;20099;-81
2020/12/20 15:01:00;;;;;;;7.57;4.43;;;;;;;;;;5093105;28;20398;-81
2020/12/20 15:03:26;;;;;;;6.95;3.55;;;;;;;;;;5077164;28;20029;-81
2020/12/20 15:05:51;;;;;;;9.30;3.97;;;;;;;;;;5077200;28;20029;-81
2020/12/20 15:08:17;;;;;;;7.03;3.83;;;;;;;;;;5073423;28;20024;-81
2020/12/20 15:10:43;;;;;;;7.78;3.80;;;;;;;;;;5069282;28;20036;-81
2020/12/20 15:13:09;;;;;;;5.70;3.33;;;;;;;;;;5066687;28;20032;-81
2020/12/20 15:17:53;;;;;;;8.15;4.05;;;;;;;;;;5121884;27;20362;-82
2020/12/20 15:20:19;;;;;;;5.43;3.40;;;;;;;;;;5103178;28;20081;-81
2020/12/20 15:22:45;;;;;;;6.90;3.63;;;;;;;;;;5096264;28;20020;-82
2020/12/20 15:25:11;;;;;;;8.05;3.78;;;;;;;;;;5102080;28;20068;-81
2020/12/20 15:27:37;;;;;;;6.40;3.90;;;;;;;;;;5109199;28;20079;-82
2020/12/20 15:30:04;;;;;;;9.77;3.45;;;;;;;;;;5094286;28;20032;-81
2020/12/20 15:32:30;;;;;;;6.57;4.07;;;;;;;;;;5094467;28;20024;-81
2020/12/20 15:34:56;;;;;;;5.88;4.00;;;;;;;;;;5095134;28;20043;-81
2020/12/20 15:37:22;;;;;;;6.07;3.42;;;;;;;;;;5098248;28;20030;-81
2020/12/20 15:39:49;;;;;;;10.13;3.75;;;;;;;;;;5089027;28;20027;-81
2020/12/20 15:42:16;;;;;;;8.07;3.72;;;;;;;;;;5089147;28;20016;-81
2020/12/20 15:44:42;;;;;;;6.22;3.83;;;;;;;;;;5092764;28;20021;-81
2020/12/20 15:47:08;;;;;;;5.13;3.40;;;;;;;;;;5096318;28;20035;-81
2020/12/20 15:49:34;;;;;;;9.48;4.53;;;;;;;;;;5102258;28;20058;-81
2020/12/20 15:52:00;;;;;;;11.20;4.43;;;;;;;;;;5099578;28;20478;-81
2020/12/20 15:54:26;;;;;;;9.68;4.95;;;;;;;;;;5108876;28;20055;-81
2020/12/20 15:56:52;;;;;;;5.78;4.05;;;;;;;;;;5099788;28;20039;-82
2020/12/20 15:59:19;;;;;;;6.03;3.20;;;;;;;;;;5101551;28;20047;-81
2020/12/20 16:01:45;;;;;;;5.03;3.13;;;;;;;;;;5101264;28;20086;-81
2020/12/20 16:04:11;;;;;;;6.78;4.03;;;;;;;;;;5101738;28;20020;-81
2020/12/20 16:06:37;;;;;;;6.85;3.65;;;;;;;;;;5105521;28;20118;-81
2020/12/20 16:09:04;;;;;;;8.75;3.38;;;;;;;;;;5096851;28;20079;-81
2020/12/20 16:11:30;;;;;;;5.20;3.08;;;;;;;;;;5097801;28;20020;-82
2020/12/20 16:13:56;;;;;;;6.82;3.67;;;;;;;;;;5097050;28;20424;-80
2020/12/20 16:16:22;;;;;;;31.98;16.98;;;;;;;;;;5099685;28;20043;-82
2020/12/20 16:18:49;;;;;;;97.05;43.97;;;;;;;;;;5095761;28;20203;-81
2020/12/20 16:21:44;;;;;;;54.90;24.95;;;;;;;;;;5094732;28;20025;-82
2020/12/20 16:24:12;;;;;;;90.38;46.33;;;;;;;;;;5084683;28;20115;-82
2020/12/20 16:26:38;;;;;;;86.55;39.28;;;;;;;;;;5099954;28;20027;-82
2020/12/20 16:29:04;;;;;;;97.32;37.00;;;;;;;;;;5093650;28;20033;-82
2020/12/20 16:31:39;;;;;;;67.50;26.92;;;;;;;;;;5084448;28;20039;-81
2020/12/20 16:34:06;;;;;;;46.28;21.38;;;;;;;;;;5083780;28;20032;-82
2020/12/20 16:36:31;;;;;;;43.30;17.20;;;;;;;;;;5075727;28;20108;-81
2020/12/20 16:38:57;;;;;;;25.77;12.00;;;;;;;;;;5078619;28;20060;-82
2020/12/20 16:41:23;;;;;;;20.80;9.85;;;;;;;;;;5079669;28;20037;-81
2020/12/20 16:43:49;;;;;;;15.73;8.63;;;;;;;;;;5082368;28;20059;-81
2020/12/20 16:46:15;;;;;;;14.02;8.50;;;;;;;;;;5076879;28;20020;-81
2020/12/20 16:48:41;;;;;;;11.68;6.20;;;;;;;;;;5079535;28;20027;-81
2020/12/20 16:51:08;;;;;;;13.27;5.70;;;;;;;;;;5083608;28;20028;-82
2020/12/20 16:53:34;;;;;;;7.55;4.15;;;;;;;;;;5084305;28;20020;-82
2020/12/20 16:56:00;;;;;;;9.10;4.70;;;;;;;;;;5080873;28;20660;-82
2020/12/20 16:58:26;;;;;;;8.88;4.63;;;;;;;;;;5081135;28;20027;-82
2020/12/20 17:00:56;;;;;;;6.95;4.55;;;;;;;;;;5091415;28;20034;-82
2020/12/20 17:03:22;;;;;;;8.00;3.38;;;;;;;;;;5084069;28;20485;-81
2020/12/20 17:05:49;;;;;;;7.03;3.58;;;;;;;;;;5078749;28;20039;-82
2020/12/20 17:08:18;;;;;;;9.23;5.63;;;;;;;;;;5078495;28;20025;-82
2020/12/20 17:10:45;;;;;;;48.17;22.67;;;;;;;;;;5081194;28;20047;-82
2020/12/20 17:13:11;;;;;;;22.65;13.70;;;;;;;;;;5086501;28;20028;-81
2020/12/20 17:15:37;;;;;;;22.48;10.77;;;;;;;;;;5077894;28;20058;-81
2020/12/20 17:18:04;;;;;;;20.02;9.20;;;;;;;;;;5088876;28;20357;-82
2020/12/20 17:20:30;;;;;;;16.15;9.00;;;;;;;;;;5086550;28;20083;-81
2020/12/20 17:22:56;;;;;;;19.50;9.60;;;;;;;;;;5080170;28;20071;-82
2020/12/20 17:25:22;;;;;;;9.60;6.43;;;;;;;;;;5083610;28;20052;-81
2020/12/20 17:27:48;;;;;;;18.65;10.95;;;;;;;;;;5085929;28;20024;-81
2020/12/20 17:30:14;;;;;;;27.33;14.48;;;;;;;;;;5079832;28;20033;-81
2020/12/20 17:32:40;;;;;;;25.42;16.42;;;;;;;;;;5086982;28;20411;-81
2020/12/20 17:35:07;;;;;;;13.82;8.43;;;;;;;;;;5081936;28;20028;-82
2020/12/20 17:37:33;;;;;;;10.88;6.85;;;;;;;;;;5079293;28;20032;-81
2020/12/20 17:39:59;;;;;;;8.95;5.53;;;;;;;;;;5079920;28;20042;-82
2020/12/20 17:42:26;;;;;;;9.52;5.45;;;;;;;;;;5079955;28;20028;-81
2020/12/20 17:44:52;;;;;;;8.10;5.35;;;;;;;;;;5079803;28;20380;-81
2020/12/20 17:47:18;;;;;;;8.18;5.22;;;;;;;;;;5078280;28;20082;-81
2020/12/20 17:49:44;;;;;;;10.40;5.25;;;;;;;;;;5084426;28;20032;-81
2020/12/20 17:52:10;;;;;;;17.77;4.78;;;;;;;;;;5083251;28;20060;-82
2020/12/20 17:54:36;;;;;;;8.55;5.00;;;;;;;;;;5075264;28;20054;-81
2020/12/20 17:57:01;;;;;;;6.20;4.43;;;;;;;;;;5076074;28;20028;-81
2020/12/20 17:59:28;;;;;;;9.60;5.50;;;;;;;;;;5076414;28;20032;-81
2020/12/20 18:01:54;;;;;;;12.50;7.40;;;;;;;;;;5079802;28;20028;-81
2020/12/20 18:04:20;;;;;;;13.10;6.63;;;;;;;;;;5083006;28;20021;-81
2020/12/20 18:06:47;;;;;;;12.82;5.93;;;;;;;;;;5077673;28;20100;-81
2020/12/20 18:09:13;;;;;;;8.13;5.03;;;;;;;;;;5079315;28;20052;-81
2020/12/20 18:11:39;;;;;;;11.65;5.25;;;;;;;;;;5077256;28;20093;-81
2020/12/20 18:14:05;;;;;;;30.80;14.38;;;;;;;;;;5080444;28;20051;-81
2020/12/20 18:16:31;;;;;;;32.92;15.88;;;;;;;;;;5075560;28;20052;-81
2020/12/20 18:18:57;;;;;;;21.55;10.38;;;;;;;;;;5083356;28;20053;-81
2020/12/20 18:21:23;;;;;;;32.92;15.75;;;;;;;;;;5081324;28;20023;-81
2020/12/20 18:23:48;;;;;;;24.08;10.50;;;;;;;;;;5074585;28;20031;-81
2020/12/20 18:26:15;;;;;;;16.40;8.98;;;;;;;;;;5074522;28;20020;-81
2020/12/20 18:28:41;;;;;;;19.38;11.23;;;;;;;;;;5081023;28;20028;-81
2020/12/20 18:31:07;;;;;;;81.50;37.03;;;;;;;;;;5077887;28;20020;-81
2020/12/20 18:33:34;;;;;;;59.47;30.95;;;;;;;;;;5082919;28;20503;-81
2020/12/20 18:36:00;;;;;;;35.78;20.33;;;;;;;;;;5085076;28;20439;-81
2020/12/20 18:38:27;;;;;;;29.00;16.75;;;;;;;;;;5086875;28;20040;-81
2020/12/20 18:40:54;;;;;;;36.72;21.48;;;;;;;;;;5084689;28;20693;-81
2020/12/20 18:43:20;;;;;;;24.58;15.10;;;;;;;;;;5085319;28;20032;-81
2020/12/20 18:45:46;;;;;;;16.95;10.77;;;;;;;;;;5080774;28;20544;-81
2020/12/20 18:48:12;;;;;;;17.05;10.32;;;;;;;;;;5077497;28;20063;-81
2020/12/20 18:50:38;;;;;;;18.48;12.52;;;;;;;;;;5087083;28;20017;-80
2020/12/20 18:53:04;;;;;;;22.60;12.68;;;;;;;;;;5086628;28;20029;-81
2020/12/20 18:55:30;;;;;;;22.25;13.65;;;;;;;;;;5087985;28;20044;-81
2020/12/20 18:57:56;;;;;;;42.92;13.65;;;;;;;;;;5087758;28;20088;-80
2020/12/20 19:00:23;;;;;;;16.52;11.05;;;;;;;;;;5081043;28;20503;-81
2020/12/20 19:02:49;;;;;;;13.98;8.68;;;;;;;;;;5082502;28;20040;-81
2020/12/20 19:05:15;;;;;;;18.35;11.57;;;;;;;;;;5091520;28;20075;-81
2020/12/20 19:07:41;;;;;;;20.15;13.02;;;;;;;;;;5082002;28;20393;-81
2020/12/20 19:10:07;;;;;;;21.27;13.85;;;;;;;;;;5089709;28;20039;-81
2020/12/20 19:12:34;;;;;;;15.40;11.02;;;;;;;;;;5088190;28;20039;-81
2020/12/20 19:15:00;;;;;;;25.52;15.13;;;;;;;;;;5089766;28;20021;-81
2020/12/20 19:17:26;;;;;;;19.88;12.10;;;;;;;;;;5085840;28;20044;-81
2020/12/20 19:19:53;;;;;;;15.07;9.48;;;;;;;;;;5082106;28;20028;-81
2020/12/20 19:22:19;;;;;;;16.05;10.13;;;;;;;;;;5072689;28;20032;-81
2020/12/20 19:24:45;;;;;;;17.27;11.60;;;;;;;;;;5080813;28;20028;-81
2020/12/20 19:27:11;;;;;;;13.90;9.80;;;;;;;;;;5089203;28;20078;-80
2020/12/20 19:29:37;;;;;;;18.15;11.10;;;;;;;;;;5081241;28;20032;-82
2020/12/20 19:32:03;;;;;;;14.98;8.35;;;;;;;;;;5081675;28;20031;-82
2020/12/20 19:34:29;;;;;;;16.48;8.65;;;;;;;;;;5081835;28;20159;-82
2020/12/20 19:36:55;;;;;;;15.80;8.85;;;;;;;;;;5081908;28;20078;-82
2020/12/20 19:39:22;;;;;;;16.60;7.90;;;;;;;;;;5082590;28;20058;-82
2020/12/20 19:41:48;;;;;;;11.45;8.13;;;;;;;;;;5082251;28;20021;-82
2020/12/20 19:44:15;;;;;;;17.65;9.00;;;;;;;;;;5083894;28;20024;-81
2020/12/20 19:46:41;;;;;;;14.65;8.82;;;;;;;;;;5082441;28;20075;-82
2020/12/20 19:49:08;;;;;;;18.05;8.30;;;;;;;;;;5080236;28;20030;-81
2020/12/20 19:51:35;;;;;;;10.25;6.07;;;;;;;;;;5078378;28;20046;-81
2020/12/20 19:54:02;;;;;;;11.88;7.25;;;;;;;;;;5084922;28;20036;-81
2020/12/20 19:56:28;;;;;;;10.15;7.07;;;;;;;;;;5080118;28;20060;-82
2020/12/20 19:58:54;;;;;;;12.68;8.10;;;;;;;;;;5084535;28;20028;-81
2020/12/20 20:01:21;;;;;;;13.23;6.90;;;;;;;;;;5083171;28;20024;-81
2020/12/20 20:03:47;;;;;;;12.60;6.85;;;;;;;;;;5086448;28;20028;-81
2020/12/20 20:06:13;;;;;;;10.80;7.20;;;;;;;;;;5081551;28;20207;-82
2020/12/20 20:08:40;;;;;;;14.25;7.75;;;;;;;;;;5079265;28;20469;-82
2020/12/20 20:11:06;;;;;;;14.27;7.15;;;;;;;;;;5087953;28;20092;-81
2020/12/20 20:13:32;;;;;;;10.10;6.63;;;;;;;;;;5087719;28;20670;-81
2020/12/20 20:15:58;;;;;;;9.63;6.68;;;;;;;;;;5088693;28;20115;-81
2020/12/20 20:18:24;;;;;;;10.40;6.72;;;;;;;;;;5090391;28;20054;-81
2020/12/20 20:20:50;;;;;;;12.02;6.13;;;;;;;;;;5092948;28;20040;-82
2020/12/20 20:23:16;;;;;;;11.30;5.80;;;;;;;;;;5081094;28;20055;-81
2020/12/20 20:25:42;;;;;;;13.18;6.65;;;;;;;;;;5082368;28;20068;-81
2020/12/20 20:28:08;;;;;;;12.32;7.25;;;;;;;;;;5085950;28;20054;-81
2020/12/20 20:30:34;;;;;;;9.55;6.05;;;;;;;;;;5081403;28;20028;-81
2020/12/20 20:33:00;;;;;;;13.70;6.43;;;;;;;;;;5091877;28;20113;-81
2020/12/20 20:35:26;;;;;;;12.60;8.18;;;;;;;;;;5094814;28;20028;-81
2020/12/20 20:37:52;;;;;;;15.65;8.73;;;;;;;;;;5087114;28;20485;-81